BEV weather

Beersheba (Teyman) Airport
Beersheba, Southern District, Israel

Public forecast

Using degrees Celsius for public forecast. Weather courtesy of forecast.io.

Closest aviation weather report (METAR) to Beersheba (Teyman) Airport

Closest report is Ben Gurion International Airport, 44.3 nm (82.0 km) N. Retrieved 2020/01/25 04:20 UTC (15 minutes ago):

LLBG 250420Z VRB02KT 9999 SCT050 07/05 Q1027 NOSIG

Closest aviation forecast (TAF) to Beersheba (Teyman) Airport

Forecast is more than 12 hours old.

Closest forecast is El Gora Airport, 33.2 nm (61.5 km) WSW. Retrieved 2020-01-22 00:00 UTC (3 days ago):

TAF HEGR 212300Z 2200/2306 30008KT 9999 SCT020 TEMPO 2200/2206 VRB03KT 3000 BR